createdAt,value
2022-12-29T00:01:53.718Z,0.65
2022-12-29T00:04:41.475Z,0.80
2022-12-29T00:07:30.400Z,0.93
2022-12-29T00:10:18.195Z,0.90
2022-12-29T00:13:23.151Z,0.85
2022-12-29T00:16:10.591Z,0.70
2022-12-29T00:18:57.858Z,0.80
2022-12-29T00:22:02.612Z,1.20
2022-12-29T00:25:09.000Z,0.73
2022-12-29T00:28:13.805Z,0.60
2022-12-29T00:31:19.830Z,0.55
2022-12-29T00:34:24.003Z,0.60
2022-12-29T00:37:11.434Z,0.90
2022-12-29T00:40:17.397Z,0.80
2022-12-29T00:43:28.019Z,0.68
2022-12-29T00:46:19.650Z,0.80
2022-12-29T00:49:25.347Z,0.60
2022-12-29T00:52:14.225Z,0.60
2022-12-29T00:55:03.064Z,0.55
2022-12-29T00:57:50.986Z,0.60
2022-12-29T01:00:38.471Z,0.60
2022-12-29T01:03:25.628Z,0.60
2022-12-29T01:06:14.887Z,0.52
2022-12-29T01:09:19.920Z,0.50
2022-12-29T01:12:10.021Z,0.65
2022-12-29T01:14:57.212Z,0.60
2022-12-29T01:17:45.014Z,0.60
2022-12-29T01:20:34.733Z,0.50
2022-12-29T01:23:24.745Z,0.50
2022-12-29T01:26:13.330Z,0.57
2022-12-29T01:29:03.340Z,0.80
2022-12-29T01:31:51.322Z,0.43
2022-12-29T01:34:38.874Z,0.50
2022-12-29T01:37:26.813Z,0.50
2022-12-29T01:40:14.756Z,0.50
2022-12-29T01:43:02.090Z,0.40
2022-12-29T01:45:55.314Z,0.40
2022-12-29T01:48:43.878Z,0.38
2022-12-29T01:51:34.114Z,0.50
2022-12-29T01:54:29.145Z,0.50
2022-12-29T01:57:21.956Z,0.50
2022-12-29T02:00:12.878Z,0.50
2022-12-29T02:03:01.617Z,0.47
2022-12-29T02:05:55.120Z,0.40
2022-12-29T02:08:48.634Z,0.30
2022-12-29T02:11:37.798Z,0.43
2022-12-29T02:14:25.245Z,0.60
2022-12-29T02:17:22.994Z,0.30
2022-12-29T02:20:38.735Z,0.50
2022-12-29T02:23:55.559Z,0.40
2022-12-29T02:26:57.569Z,0.43
2022-12-29T02:30:04.403Z,0.50
2022-12-29T02:33:02.063Z,0.30
2022-12-29T02:35:58.071Z,0.50
2022-12-29T02:38:57.922Z,0.50
2022-12-29T02:41:56.713Z,0.35
2022-12-29T02:44:55.845Z,0.40
2022-12-29T02:47:51.277Z,0.47
2022-12-29T02:50:44.677Z,0.52
2022-12-29T02:53:51.954Z,0.30
2022-12-29T02:56:40.414Z,0.50
2022-12-29T02:59:27.799Z,0.53
2022-12-29T03:02:32.429Z,0.22
2022-12-29T03:05:34.712Z,0.40
2022-12-29T03:08:30.877Z,0.50
2022-12-29T03:11:36.774Z,0.50
2022-12-29T03:14:49.684Z,0.37
2022-12-29T03:17:47.743Z,0.20
2022-12-29T03:20:41.835Z,0.30
2022-12-29T03:23:32.469Z,0.25
2022-12-29T03:26:22.264Z,0.30
2022-12-29T03:29:12.095Z,0.50
2022-12-29T03:32:01.825Z,0.32
2022-12-29T03:34:50.474Z,0.50
2022-12-29T03:37:41.467Z,0.30
2022-12-29T03:40:33.366Z,0.25
2022-12-29T03:43:21.388Z,0.30
2022-12-29T03:46:09.423Z,0.50
2022-12-29T03:48:58.880Z,0.45
2022-12-29T03:51:46.379Z,0.30
2022-12-29T03:54:34.276Z,0.40
2022-12-29T03:57:23.158Z,0.30
2022-12-29T04:00:23.433Z,0.30
2022-12-29T04:03:11.139Z,0.32
2022-12-29T04:05:59.013Z,0.30
2022-12-29T04:08:46.902Z,0.30
2022-12-29T04:11:35.445Z,0.50
2022-12-29T04:14:26.172Z,0.30
2022-12-29T04:17:13.954Z,0.30
2022-12-29T04:20:17.250Z,0.20
2022-12-29T04:23:07.105Z,0.32
2022-12-29T04:25:55.906Z,0.37
2022-12-29T04:28:43.235Z,0.30
2022-12-29T04:31:52.638Z,0.40
2022-12-29T04:34:39.960Z,0.40
2022-12-29T04:37:27.599Z,0.40
2022-12-29T04:40:16.799Z,0.70
2022-12-29T04:43:04.236Z,0.50
2022-12-29T04:45:54.266Z,0.35
2022-12-29T04:49:12.527Z,0.30
2022-12-29T04:52:21.324Z,0.30
2022-12-29T04:55:09.839Z,0.40
2022-12-29T04:57:57.803Z,0.30
2022-12-29T05:00:45.689Z,0.30
2022-12-29T05:03:33.047Z,0.38
2022-12-29T05:06:22.296Z,0.30
2022-12-29T05:09:10.698Z,0.20
2022-12-29T05:11:58.261Z,0.30
2022-12-29T05:14:45.431Z,0.30
2022-12-29T05:17:33.218Z,0.30
2022-12-29T05:20:39.389Z,0.47
2022-12-29T05:23:28.258Z,0.40
2022-12-29T05:26:21.001Z,0.40
2022-12-29T05:29:25.397Z,0.30
2022-12-29T05:32:13.577Z,0.40
2022-12-29T05:35:05.667Z,0.30
2022-12-29T05:37:57.027Z,0.40
2022-12-29T05:40:48.310Z,0.20
2022-12-29T05:43:55.339Z,0.40
2022-12-29T05:47:03.810Z,0.40
2022-12-29T05:50:14.051Z,0.40
2022-12-29T05:53:20.959Z,0.40
2022-12-29T05:56:10.228Z,0.40
2022-12-29T05:58:57.967Z,0.30
2022-12-29T06:01:45.828Z,0.30
2022-12-29T06:04:33.460Z,0.30
2022-12-29T06:07:20.833Z,0.40
2022-12-29T06:10:10.089Z,0.43
2022-12-29T06:13:21.897Z,0.30
2022-12-29T06:16:11.243Z,0.30
2022-12-29T06:18:59.886Z,0.30
2022-12-29T06:21:47.705Z,0.40
2022-12-29T06:24:35.166Z,0.30
2022-12-29T06:27:23.368Z,0.30
2022-12-29T06:30:16.017Z,0.40
2022-12-29T06:33:05.152Z,0.30
2022-12-29T06:35:52.574Z,0.40
2022-12-29T06:38:40.150Z,0.20
2022-12-29T06:41:32.237Z,0.38
2022-12-29T06:44:52.306Z,0.40
2022-12-29T06:47:41.183Z,0.40
2022-12-29T06:50:28.494Z,0.30
2022-12-29T06:53:15.814Z,0.20
2022-12-29T06:56:03.109Z,0.30
2022-12-29T06:58:50.966Z,0.40
2022-12-29T07:01:38.710Z,0.47
2022-12-29T07:04:27.845Z,0.40
2022-12-29T07:07:15.552Z,0.45
2022-12-29T07:10:03.407Z,0.52
2022-12-29T07:12:52.502Z,0.50
2022-12-29T07:15:40.700Z,0.38
2022-12-29T07:18:28.143Z,0.30
2022-12-29T07:21:17.585Z,0.40
2022-12-29T07:24:05.789Z,0.50
2022-12-29T07:26:53.216Z,0.40
2022-12-29T07:29:40.649Z,0.40
2022-12-29T07:32:28.284Z,0.70
2022-12-29T07:35:16.231Z,0.50
2022-12-29T07:38:08.656Z,0.50
2022-12-29T07:41:00.436Z,0.70
2022-12-29T07:43:50.194Z,0.60
2022-12-29T07:46:56.061Z,0.50
2022-12-29T07:49:48.475Z,0.60
2022-12-29T07:52:35.826Z,0.52
2022-12-29T07:55:25.034Z,0.65
2022-12-29T07:58:12.711Z,0.70
2022-12-29T08:01:00.545Z,0.73
2022-12-29T08:03:52.565Z,0.40
2022-12-29T08:06:43.475Z,1.95
2022-12-29T08:09:31.163Z,1.83
2022-12-29T08:12:20.275Z,0.90
2022-12-29T08:15:09.455Z,0.83
2022-12-29T08:17:57.370Z,0.68
2022-12-29T08:20:45.141Z,0.70
2022-12-29T08:23:33.058Z,0.60
2022-12-29T08:26:22.964Z,0.60
2022-12-29T08:29:13.474Z,0.60
2022-12-29T08:32:00.965Z,1.23
2022-12-29T08:34:48.321Z,0.88
2022-12-29T08:37:36.356Z,1.02
2022-12-29T08:40:23.903Z,1.17
2022-12-29T08:43:11.785Z,0.60
2022-12-29T08:46:03.093Z,0.57
2022-12-29T08:48:50.841Z,0.60
2022-12-29T08:51:38.374Z,0.80
2022-12-29T08:54:26.211Z,0.70
2022-12-29T08:57:13.914Z,0.90
2022-12-29T09:00:22.234Z,0.60
2022-12-29T09:03:11.257Z,0.68
2022-12-29T09:05:58.976Z,0.57
2022-12-29T09:08:47.037Z,0.70
2022-12-29T09:11:34.505Z,0.77
2022-12-29T09:14:22.774Z,0.80
2022-12-29T09:17:27.905Z,0.70
2022-12-29T09:20:18.804Z,1.00
2022-12-29T09:23:07.576Z,0.75
2022-12-29T09:25:55.137Z,1.20
2022-12-29T09:28:42.763Z,0.90
2022-12-29T09:31:30.137Z,0.70
2022-12-29T09:34:18.136Z,0.40
2022-12-29T09:37:07.333Z,0.70
2022-12-29T09:39:54.870Z,0.90
2022-12-29T09:42:48.366Z,0.65
2022-12-29T09:45:42.533Z,0.90
2022-12-29T09:48:35.680Z,0.90
2022-12-29T09:51:26.475Z,0.65
2022-12-29T09:54:27.065Z,0.90
2022-12-29T09:57:22.500Z,0.70
2022-12-29T10:00:18.453Z,0.80
2022-12-29T10:03:16.435Z,1.23
2022-12-29T10:06:13.993Z,0.90
2022-12-29T10:09:10.898Z,0.60
2022-12-29T10:12:14.475Z,0.88
2022-12-29T10:15:11.338Z,0.70
2022-12-29T10:18:11.245Z,1.48
2022-12-29T10:21:07.025Z,0.75
2022-12-29T10:23:55.549Z,1.30
2022-12-29T10:26:45.140Z,0.85
2022-12-29T10:29:38.035Z,1.00
2022-12-29T10:32:35.283Z,1.10
2022-12-29T10:35:24.887Z,0.82
2022-12-29T10:38:21.836Z,1.20
2022-12-29T10:41:18.604Z,1.08
2022-12-29T10:44:06.446Z,1.15
2022-12-29T10:47:01.374Z,0.95
2022-12-29T10:49:50.487Z,1.15
2022-12-29T10:52:42.062Z,0.60
2022-12-29T10:55:34.891Z,0.77
2022-12-29T10:58:23.999Z,0.98
2022-12-29T11:01:13.785Z,0.68
2022-12-29T11:04:08.374Z,0.60
2022-12-29T11:06:57.843Z,0.57
2022-12-29T11:09:46.594Z,0.80
2022-12-29T11:12:35.125Z,0.80
2022-12-29T11:15:22.647Z,0.65
2022-12-29T11:18:21.664Z,0.60
2022-12-29T11:21:29.368Z,0.97
2022-12-29T11:24:23.822Z,0.80
2022-12-29T11:27:18.183Z,0.60
2022-12-29T11:30:26.056Z,0.73
2022-12-29T11:33:13.768Z,0.70
2022-12-29T11:36:04.838Z,0.67
2022-12-29T11:38:58.186Z,1.00
2022-12-29T11:41:55.168Z,1.00
2022-12-29T11:44:46.866Z,0.75
2022-12-29T11:47:37.721Z,0.90
2022-12-29T11:50:28.684Z,0.53
2022-12-29T11:53:22.979Z,0.80
2022-12-29T11:56:17.964Z,0.77
2022-12-29T11:59:37.782Z,0.60
2022-12-29T12:02:42.827Z,0.65
2022-12-29T12:05:41.178Z,0.50
2022-12-29T12:08:37.072Z,0.65
2022-12-29T12:11:37.423Z,0.80
2022-12-29T12:14:31.235Z,0.75
2022-12-29T12:17:57.944Z,0.75
2022-12-29T12:20:48.477Z,0.60
2022-12-29T12:23:49.945Z,0.57
2022-12-29T12:26:45.894Z,0.68
2022-12-29T12:29:41.059Z,0.70
2022-12-29T12:32:44.296Z,0.50
2022-12-29T12:35:43.123Z,0.90
2022-12-29T12:38:40.782Z,0.50
2022-12-29T12:41:38.300Z,0.73
2022-12-29T12:44:37.885Z,1.23
2022-12-29T12:47:46.874Z,0.90
2022-12-29T12:50:45.315Z,0.80
2022-12-29T12:53:43.803Z,0.73
2022-12-29T12:56:53.905Z,1.08
2022-12-29T12:59:56.275Z,0.65
2022-12-29T13:02:58.187Z,0.60
2022-12-29T13:06:13.782Z,0.70
2022-12-29T13:09:31.712Z,0.93
2022-12-29T13:12:31.807Z,0.80
2022-12-29T13:15:37.917Z,1.00
2022-12-29T13:18:37.875Z,1.13
2022-12-29T13:21:36.294Z,0.90
2022-12-29T13:24:31.891Z,0.80
2022-12-29T13:27:23.606Z,1.02
2022-12-29T13:30:15.219Z,1.10
2022-12-29T13:33:21.395Z,0.85
2022-12-29T13:36:20.755Z,1.20
2022-12-29T13:39:17.524Z,0.68
2022-12-29T13:42:10.047Z,1.02
2022-12-29T13:45:02.752Z,0.85
2022-12-29T13:47:58.808Z,1.20
2022-12-29T13:50:53.489Z,1.30
2022-12-29T13:53:57.422Z,0.90
2022-12-29T13:56:53.987Z,1.10
2022-12-29T13:59:51.451Z,1.00
2022-12-29T14:02:49.716Z,1.30
2022-12-29T14:05:37.543Z,2.30
2022-12-29T14:08:26.876Z,1.70
2022-12-29T14:11:19.098Z,1.00
2022-12-29T14:14:15.476Z,0.98
2022-12-29T14:17:15.346Z,0.93
2022-12-29T14:20:05.184Z,0.87
2022-12-29T14:23:00.008Z,1.00
2022-12-29T14:26:36.776Z,1.20
2022-12-29T14:29:46.873Z,1.30
2022-12-29T14:32:40.770Z,1.23
2022-12-29T14:35:43.944Z,1.23
2022-12-29T14:38:33.426Z,1.05
2022-12-29T14:41:30.078Z,1.17
2022-12-29T14:44:22.126Z,1.45
2022-12-29T14:47:10.729Z,1.38
2022-12-29T14:49:59.116Z,1.07
2022-12-29T14:52:51.432Z,0.82
2022-12-29T14:55:43.407Z,0.80
2022-12-29T14:58:34.965Z,1.88
2022-12-29T15:01:29.833Z,1.08
2022-12-29T15:04:22.151Z,1.43
2022-12-29T15:07:12.544Z,1.00
2022-12-29T15:10:08.468Z,1.50
2022-12-29T15:12:58.125Z,1.13
2022-12-29T15:15:46.922Z,1.50
2022-12-29T15:18:35.858Z,0.90
2022-12-29T15:21:28.012Z,0.90
2022-12-29T15:24:16.872Z,0.82
2022-12-29T15:27:06.952Z,1.30
2022-12-29T15:30:03.037Z,0.80
2022-12-29T15:32:53.245Z,1.00
2022-12-29T15:35:41.820Z,1.00
2022-12-29T15:38:38.643Z,1.00
2022-12-29T15:41:55.135Z,1.10
2022-12-29T15:44:44.765Z,1.10
2022-12-29T15:47:34.335Z,0.67
2022-12-29T15:50:28.653Z,1.13
2022-12-29T15:53:25.901Z,1.10
2022-12-29T15:56:13.622Z,1.10
2022-12-29T15:59:02.544Z,1.10
2022-12-29T16:01:49.909Z,1.20
2022-12-29T16:04:54.350Z,0.80
2022-12-29T16:07:57.723Z,0.90
2022-12-29T16:10:45.868Z,1.08
2022-12-29T16:13:40.520Z,1.48
2022-12-29T16:16:30.527Z,0.70
2022-12-29T16:19:32.009Z,0.95
2022-12-29T16:22:27.991Z,1.05
2022-12-29T16:25:24.674Z,1.20
2022-12-29T16:28:20.396Z,0.90
2022-12-29T16:31:09.463Z,1.17
2022-12-29T16:33:58.133Z,0.90
2022-12-29T16:36:56.823Z,1.40
2022-12-29T16:39:44.527Z,0.70
2022-12-29T16:42:38.909Z,1.10
2022-12-29T16:46:08.374Z,1.20
2022-12-29T16:48:57.584Z,0.82
2022-12-29T16:51:45.505Z,0.60
2022-12-29T16:54:37.933Z,0.80
2022-12-29T16:57:29.650Z,0.60
2022-12-29T17:00:23.955Z,0.83
2022-12-29T17:03:13.467Z,1.20
2022-12-29T17:06:01.378Z,0.60
2022-12-29T17:08:49.927Z,0.63
2022-12-29T17:12:00.530Z,0.75
2022-12-29T17:14:56.614Z,1.13
2022-12-29T17:17:47.579Z,0.60
2022-12-29T17:20:35.234Z,0.80
2022-12-29T17:23:26.489Z,1.13
2022-12-29T17:26:15.243Z,0.60
2022-12-29T17:29:02.676Z,0.80
2022-12-29T17:31:50.637Z,0.90
2022-12-29T17:34:39.924Z,0.52
2022-12-29T17:37:36.410Z,1.00
2022-12-29T17:40:28.496Z,1.00
2022-12-29T17:43:17.433Z,1.10
2022-12-29T17:46:07.778Z,1.00
2022-12-29T17:48:55.538Z,0.85
2022-12-29T17:51:46.014Z,1.00
2022-12-29T17:54:33.810Z,1.15
2022-12-29T17:57:22.905Z,1.20
2022-12-29T18:00:16.977Z,1.35
2022-12-29T18:03:05.034Z,1.20
2022-12-29T18:05:52.881Z,1.15
2022-12-29T18:08:42.833Z,1.10
2022-12-29T18:11:30.389Z,1.40
2022-12-29T18:14:19.145Z,1.33
2022-12-29T18:17:13.452Z,1.00
2022-12-29T18:20:01.190Z,1.00
2022-12-29T18:22:49.219Z,1.00
2022-12-29T18:25:44.677Z,1.30
2022-12-29T18:28:32.503Z,1.45
2022-12-29T18:31:22.536Z,1.45
2022-12-29T18:34:17.134Z,1.23
2022-12-29T18:37:05.080Z,1.83
2022-12-29T18:39:52.666Z,0.90
2022-12-29T18:42:42.412Z,1.10
2022-12-29T18:45:32.755Z,1.23
2022-12-29T18:48:21.723Z,0.93
2022-12-29T18:51:13.537Z,0.73
2022-12-29T18:54:03.282Z,0.97
2022-12-29T18:56:50.972Z,0.95
2022-12-29T18:59:41.273Z,1.17
2022-12-29T19:02:28.914Z,0.70
2022-12-29T19:05:23.035Z,0.90
2022-12-29T19:08:11.774Z,0.90
2022-12-29T19:11:01.195Z,0.55
2022-12-29T19:13:48.944Z,0.43
2022-12-29T19:16:38.471Z,0.40
2022-12-29T19:19:26.119Z,0.60
2022-12-29T19:22:13.646Z,0.70
2022-12-29T19:25:01.489Z,0.50
2022-12-29T19:27:49.238Z,0.80
2022-12-29T19:30:37.155Z,0.47
2022-12-29T19:33:26.711Z,0.63
2022-12-29T19:36:17.212Z,0.80
2022-12-29T19:39:06.047Z,0.60
2022-12-29T19:41:59.120Z,0.82
2022-12-29T19:44:51.522Z,0.70
2022-12-29T19:47:38.967Z,0.77
2022-12-29T19:50:29.050Z,1.00
2022-12-29T19:53:17.189Z,0.40
2022-12-29T19:56:05.834Z,0.90
2022-12-29T19:58:53.784Z,0.80
2022-12-29T20:01:41.657Z,2.08
2022-12-29T20:04:29.337Z,2.27
2022-12-29T20:07:19.373Z,1.17
2022-12-29T20:10:08.206Z,0.80
2022-12-29T20:12:56.047Z,0.65
2022-12-29T20:15:45.496Z,0.75
2022-12-29T20:18:33.652Z,1.00
2022-12-29T20:21:23.621Z,1.08
2022-12-29T20:24:13.068Z,1.08
2022-12-29T20:27:00.999Z,2.28
2022-12-29T20:29:48.441Z,0.85
2022-12-29T20:32:38.934Z,2.00
2022-12-29T20:35:26.721Z,1.15
2022-12-29T20:38:14.606Z,1.20
2022-12-29T20:41:03.680Z,1.48
2022-12-29T20:43:51.248Z,1.40
2022-12-29T20:46:43.612Z,1.00
2022-12-29T20:49:31.970Z,0.98
2022-12-29T20:52:19.541Z,0.90
2022-12-29T20:55:07.646Z,3.03
2022-12-29T20:58:23.052Z,3.30
2022-12-29T21:01:05.613Z,1.50
2022-12-29T21:03:53.725Z,1.58
2022-12-29T21:06:41.453Z,1.15
2022-12-29T21:09:29.134Z,1.90
2022-12-29T21:12:16.738Z,1.00
2022-12-29T21:15:06.031Z,1.00
2022-12-29T21:17:53.694Z,1.08
2022-12-29T21:20:44.727Z,1.52
2022-12-29T21:23:32.780Z,1.40
2022-12-29T21:26:21.502Z,1.58
2022-12-29T21:29:08.876Z,1.17
2022-12-29T21:32:05.559Z,1.23
2022-12-29T21:34:53.696Z,1.40
2022-12-29T21:37:41.316Z,1.33
2022-12-29T21:40:28.968Z,1.20
2022-12-29T21:43:16.468Z,1.30
2022-12-29T21:46:03.391Z,1.35
2022-12-29T21:48:52.617Z,1.30
2022-12-29T21:51:52.452Z,1.30
2022-12-29T21:54:57.546Z,1.35
2022-12-29T21:58:02.247Z,1.50
2022-12-29T22:01:07.029Z,1.40
2022-12-29T22:04:14.085Z,1.30
2022-12-29T22:07:19.876Z,1.23
2022-12-29T22:10:26.018Z,1.42
2022-12-29T22:13:13.374Z,1.27
2022-12-29T22:16:01.045Z,1.17
2022-12-29T22:18:48.718Z,1.13
2022-12-29T22:21:37.986Z,1.45
2022-12-29T22:24:25.275Z,1.08
2022-12-29T22:27:13.265Z,1.20
2022-12-29T22:30:00.696Z,0.75
2022-12-29T22:32:48.556Z,1.33
2022-12-29T22:35:36.105Z,1.00
2022-12-29T22:38:26.335Z,1.48
2022-12-29T22:41:14.319Z,1.10
2022-12-29T22:44:02.223Z,1.02
2022-12-29T22:46:49.758Z,1.20
2022-12-29T22:49:37.715Z,1.38
2022-12-29T22:52:25.282Z,1.60
2022-12-29T22:55:14.350Z,1.20
2022-12-29T22:58:04.076Z,1.88
2022-12-29T23:00:51.398Z,1.25
2022-12-29T23:03:39.223Z,1.30
2022-12-29T23:06:27.084Z,1.35
2022-12-29T23:09:18.527Z,1.40
2022-12-29T23:12:08.227Z,1.40
2022-12-29T23:14:55.459Z,1.15
2022-12-29T23:17:43.082Z,0.98
2022-12-29T23:20:30.718Z,1.60
2022-12-29T23:23:46.280Z,1.47
2022-12-29T23:26:40.139Z,1.35
2022-12-29T23:29:28.949Z,0.75
2022-12-29T23:32:16.608Z,1.23
2022-12-29T23:35:04.596Z,1.30
2022-12-29T23:37:52.255Z,1.77
2022-12-29T23:40:39.888Z,1.40
2022-12-29T23:43:27.625Z,2.25
2022-12-29T23:46:18.171Z,1.60
2022-12-29T23:49:06.029Z,1.10
2022-12-29T23:51:53.336Z,1.83
2022-12-29T23:54:40.736Z,1.27
2022-12-29T23:57:28.122Z,1.30
